createdAt,value
2019-04-11T00:00:01.438Z,970.47
2019-04-11T00:05:02.272Z,970.51
2019-04-11T00:10:01.185Z,970.43
2019-04-11T00:15:02.418Z,970.52
2019-04-11T00:20:02.148Z,970.49
2019-04-11T00:25:01.451Z,970.50
2019-04-11T00:30:01.911Z,970.55
2019-04-11T00:35:01.700Z,970.51
2019-04-11T00:40:01.820Z,970.56
2019-04-11T00:45:01.122Z,970.51
2019-04-11T00:50:01.118Z,970.41
2019-04-11T00:55:01.075Z,970.42
2019-04-11T01:00:01.357Z,970.31
2019-04-11T01:05:01.365Z,970.37
2019-04-11T01:10:01.100Z,970.29
2019-04-11T01:15:01.378Z,970.36
2019-04-11T01:20:01.477Z,970.28
2019-04-11T01:25:01.064Z,970.42
2019-04-11T01:30:02.164Z,970.45
2019-04-11T01:35:01.275Z,970.51
2019-04-11T01:40:01.404Z,970.45
2019-04-11T01:45:01.136Z,970.49
2019-04-11T01:50:01.147Z,970.56
2019-04-11T01:55:02.036Z,970.53
2019-04-11T02:00:01.987Z,970.59
2019-04-11T02:05:02.866Z,970.60
2019-04-11T02:10:02.509Z,970.62
2019-04-11T02:15:01.164Z,970.57
2019-04-11T02:20:01.273Z,970.45
2019-04-11T02:25:01.503Z,970.48
2019-04-11T02:30:01.341Z,970.39
2019-04-11T02:35:02.512Z,970.37
2019-04-11T03:20:13.215Z,970.49
2019-04-11T03:25:02.922Z,970.56
2019-04-11T03:30:02.986Z,970.57
2019-04-11T03:40:22.370Z,970.68
2019-04-11T03:45:20.518Z,970.74
2019-04-11T03:50:07.952Z,970.75
2019-04-11T03:55:03.729Z,970.79
2019-04-11T04:00:03.493Z,970.81
2019-04-11T04:05:01.416Z,970.89
2019-04-11T04:10:03.043Z,970.86
2019-04-11T04:15:03.456Z,970.91
2019-04-11T04:20:02.312Z,971.00
2019-04-11T04:25:01.377Z,971.02
2019-04-11T04:30:04.488Z,971.11
2019-04-11T04:35:01.758Z,971.16
2019-04-11T04:40:21.565Z,971.08
2019-04-11T04:45:02.771Z,971.20
2019-04-11T04:50:01.581Z,971.18
2019-04-11T04:55:02.157Z,971.18
2019-04-11T05:00:02.669Z,971.25
2019-04-11T05:05:03.577Z,971.35
2019-04-11T05:10:03.191Z,971.52
2019-04-11T05:15:01.479Z,971.51
2019-04-11T05:20:01.502Z,971.62
2019-04-11T05:25:01.927Z,971.68
2019-04-11T05:30:01.076Z,971.70
2019-04-11T05:35:01.130Z,971.79
2019-04-11T05:40:01.130Z,971.86
2019-04-11T05:45:01.106Z,971.86
2019-04-11T05:50:01.222Z,971.95
2019-04-11T05:55:01.244Z,971.91
2019-04-11T06:00:01.290Z,971.88
2019-04-11T06:05:02.712Z,971.87
2019-04-11T06:10:06.056Z,971.90
2019-04-11T06:15:02.005Z,971.88
2019-04-11T06:20:02.119Z,971.90
2019-04-11T06:25:01.318Z,971.95
2019-04-11T06:30:01.365Z,971.94
2019-04-11T06:35:01.891Z,972.03
2019-04-11T06:40:02.422Z,972.09
2019-04-11T06:45:02.118Z,972.26
2019-04-11T06:50:01.121Z,972.26
2019-04-11T06:55:02.502Z,972.17
2019-04-11T07:00:01.117Z,972.20
2019-04-11T07:05:02.405Z,972.24
2019-04-11T07:10:02.114Z,972.23
2019-04-11T07:15:02.441Z,972.39
2019-04-11T07:20:02.432Z,972.44
2019-04-11T07:25:01.950Z,972.43
2019-04-11T07:30:01.105Z,972.50
2019-04-11T07:35:02.269Z,972.52
2019-04-11T07:40:02.724Z,972.48
2019-04-11T07:45:01.169Z,972.62
2019-04-11T07:50:02.308Z,972.59
2019-04-11T07:55:02.411Z,972.65
2019-04-11T08:00:01.467Z,972.69
2019-04-11T08:05:02.389Z,972.82
2019-04-11T08:10:02.425Z,972.95
2019-04-11T08:15:01.561Z,972.90
2019-04-11T08:20:01.109Z,972.88
2019-04-11T08:25:01.175Z,972.95
2019-04-11T08:30:02.508Z,972.92
2019-04-11T08:35:01.984Z,973.01
2019-04-11T08:40:01.824Z,973.09
2019-04-11T08:45:01.110Z,973.05
2019-04-11T08:50:02.169Z,973.21
2019-04-11T08:55:02.201Z,973.20
2019-04-11T09:00:02.180Z,973.22
2019-04-11T09:05:06.903Z,973.33
2019-04-11T09:10:02.006Z,973.29
2019-04-11T09:15:02.112Z,973.38
2019-04-11T09:20:01.135Z,973.42
2019-04-11T09:25:01.435Z,973.40
2019-04-11T09:30:02.456Z,973.44
2019-04-11T09:35:01.851Z,973.48
2019-04-11T09:40:01.669Z,973.57
2019-04-11T09:45:01.464Z,973.57
2019-04-11T09:50:02.343Z,973.53
2019-04-11T09:55:01.414Z,973.59
2019-04-11T10:00:01.820Z,973.61
2019-04-11T10:05:02.696Z,973.70
2019-04-11T10:10:02.438Z,973.70
2019-04-11T10:15:03.007Z,973.76
2019-04-11T10:20:02.515Z,973.72
2019-04-11T10:25:01.132Z,973.74
2019-04-11T10:30:01.201Z,973.80
2019-04-11T10:35:01.936Z,973.82
2019-04-11T10:40:01.841Z,973.82
2019-04-11T10:45:02.581Z,973.79
2019-04-11T10:50:01.191Z,973.82
2019-04-11T10:55:01.380Z,973.95
2019-04-11T11:00:01.247Z,973.91
2019-04-11T11:05:01.175Z,973.97
2019-04-11T11:10:01.260Z,973.98
2019-04-11T11:15:01.117Z,973.97
2019-04-11T11:20:15.100Z,974.09
2019-04-11T11:25:02.299Z,974.05
2019-04-11T11:30:04.016Z,974.14
2019-04-11T11:35:01.233Z,974.22
2019-04-11T11:40:05.714Z,974.14
2019-04-11T11:45:02.423Z,974.11
2019-04-11T11:50:03.331Z,974.09
2019-04-11T11:55:02.195Z,974.10
2019-04-11T12:00:01.209Z,974.17
2019-04-11T12:05:02.489Z,974.18
2019-04-11T12:10:02.757Z,974.31
2019-04-11T12:15:01.551Z,974.29
2019-04-11T12:20:06.398Z,974.30
2019-04-11T12:25:01.089Z,974.33
2019-04-11T12:30:05.444Z,974.44
2019-04-11T12:35:02.193Z,974.40
2019-04-11T12:40:01.082Z,974.42
2019-04-11T12:45:01.437Z,974.46
2019-04-11T12:50:01.147Z,974.45
2019-04-11T12:55:01.105Z,974.51
2019-04-11T13:00:01.520Z,974.54
2019-04-11T13:05:01.066Z,974.49
2019-04-11T13:10:01.099Z,974.54
2019-04-11T13:15:01.108Z,974.61
2019-04-11T13:20:04.973Z,974.66
2019-04-11T13:25:01.075Z,974.53
2019-04-11T13:30:01.125Z,974.64
2019-04-11T13:35:01.492Z,974.71
2019-04-11T13:40:01.096Z,974.71
2019-04-11T13:45:01.152Z,974.61
2019-04-11T13:50:03.869Z,974.70
2019-04-11T13:55:01.067Z,974.73
2019-04-11T14:00:01.081Z,974.70
2019-04-11T14:05:01.112Z,974.73
2019-04-11T14:10:02.218Z,974.66
2019-04-11T14:15:01.259Z,974.56
2019-04-11T14:20:01.097Z,974.64
2019-04-11T14:25:02.476Z,974.59
2019-04-11T14:30:01.436Z,974.60
2019-04-11T14:35:05.587Z,974.70
2019-04-11T14:40:01.040Z,974.68
2019-04-11T14:45:01.064Z,974.64
2019-04-11T14:50:01.153Z,974.61
2019-04-11T14:55:01.098Z,974.58
2019-04-11T15:00:01.088Z,974.63
2019-04-11T15:05:01.087Z,974.66
2019-04-11T15:10:01.293Z,974.61
2019-04-11T15:15:01.486Z,974.61
2019-04-11T15:20:02.653Z,974.59
2019-04-11T15:25:01.101Z,974.64
2019-04-11T15:30:01.622Z,974.65
2019-04-11T15:35:01.515Z,974.65
2019-04-11T15:40:01.111Z,974.74
2019-04-11T15:45:01.159Z,974.72
2019-04-11T15:50:01.637Z,974.69
2019-04-11T15:55:02.429Z,974.70
2019-04-11T16:00:01.596Z,974.63
2019-04-11T16:05:02.021Z,974.66
2019-04-11T16:10:01.102Z,974.72
2019-04-11T16:15:01.169Z,974.73
2019-04-11T16:20:01.097Z,974.77
2019-04-11T16:25:01.058Z,974.73
2019-04-11T16:30:01.112Z,974.72
2019-04-11T16:35:01.105Z,974.75
2019-04-11T16:40:01.474Z,974.66
2019-04-11T16:45:01.048Z,974.74
2019-04-11T16:50:01.346Z,974.67
2019-04-11T16:55:01.071Z,974.79
2019-04-11T17:00:01.072Z,974.82
2019-04-11T17:05:01.562Z,974.84
2019-04-11T17:10:01.172Z,974.86
2019-04-11T17:15:01.728Z,974.98
2019-04-11T17:20:01.196Z,974.93
2019-04-11T17:25:01.049Z,974.99
2019-04-11T17:30:01.056Z,975.07
2019-04-11T17:35:01.967Z,975.12
2019-04-11T17:40:01.125Z,975.17
2019-04-11T17:45:01.449Z,975.22
2019-04-11T17:50:04.196Z,975.27
2019-04-11T17:55:01.191Z,975.32
2019-04-11T18:00:01.110Z,975.38
2019-04-11T18:05:01.183Z,975.47
2019-04-11T18:10:01.101Z,975.58
2019-04-11T18:15:02.364Z,975.65
2019-04-11T18:20:01.078Z,975.70
2019-04-11T18:25:01.472Z,975.71
2019-04-11T18:30:01.096Z,975.84
2019-04-11T18:35:02.402Z,975.93
2019-04-11T18:40:01.172Z,975.97
2019-04-11T18:45:01.144Z,975.95
2019-04-11T18:50:01.259Z,976.13
2019-04-11T18:55:01.070Z,976.16
2019-04-11T19:00:02.395Z,976.19
2019-04-11T19:05:02.270Z,976.29
2019-04-11T19:10:01.167Z,976.27
2019-04-11T19:15:01.165Z,976.24
2019-04-11T19:20:01.100Z,976.23
2019-04-11T19:25:01.692Z,976.20
2019-04-11T19:30:01.145Z,976.33
2019-04-11T19:35:01.218Z,976.29
2019-04-11T19:40:01.353Z,976.29
2019-04-11T19:45:02.941Z,976.22
2019-04-11T19:50:01.239Z,976.28
2019-04-11T19:55:04.723Z,976.26
2019-04-11T20:00:01.596Z,976.35
2019-04-11T20:05:01.162Z,976.39
2019-04-11T20:10:01.693Z,976.41
2019-04-11T20:15:04.642Z,976.36
2019-04-11T20:20:02.019Z,976.45
2019-04-11T20:25:01.390Z,976.37
2019-04-11T20:30:01.189Z,976.47
2019-04-11T20:35:01.301Z,976.45
2019-04-11T20:40:01.514Z,976.57
2019-04-11T20:45:01.253Z,976.49
2019-04-11T20:50:07.316Z,976.46
2019-04-11T20:55:01.169Z,976.38
2019-04-11T21:00:01.233Z,976.40
2019-04-11T21:05:01.306Z,976.39
2019-04-11T21:10:03.990Z,976.40
2019-04-11T21:15:01.474Z,976.49
2019-04-11T21:20:01.428Z,976.53
2019-04-11T21:25:01.161Z,976.39
2019-04-11T21:30:01.287Z,976.56
2019-04-11T21:35:02.311Z,976.62
2019-04-11T21:40:01.403Z,976.62
2019-04-11T21:45:01.137Z,976.58
2019-04-11T21:50:01.492Z,976.57
2019-04-11T21:55:01.353Z,976.58
2019-04-11T22:00:01.624Z,976.63
2019-04-11T22:05:01.553Z,976.52
2019-04-11T22:10:01.253Z,976.63
2019-04-11T22:15:01.549Z,976.59
2019-04-11T22:20:01.362Z,976.62
2019-04-11T22:25:01.259Z,976.54
2019-04-11T22:30:01.840Z,976.56
2019-04-11T22:35:01.339Z,976.53
2019-04-11T22:40:02.665Z,976.55
2019-04-11T22:45:01.260Z,976.66
2019-04-11T22:50:01.552Z,976.50
2019-04-11T22:55:01.242Z,976.57
2019-04-11T23:00:01.289Z,976.55
2019-04-11T23:05:01.325Z,976.59
2019-04-11T23:10:01.538Z,976.58
2019-04-11T23:15:01.291Z,976.58
2019-04-11T23:20:01.492Z,976.51
2019-04-11T23:25:01.089Z,976.68
2019-04-11T23:30:01.121Z,976.67
2019-04-11T23:35:01.455Z,976.57
2019-04-11T23:40:01.179Z,976.62
2019-04-11T23:45:01.114Z,976.58
2019-04-11T23:50:01.137Z,976.55
2019-04-11T23:55:01.410Z,976.51
